CheckWX is a tool to help pilots better visualize weather data.  It is not intended as a substitute for an official pre-flight weather briefing.

09:45:47 UTC

UWKD TAF
Kazan International Airport
Kazan, Russian Federation
TAF UWKD 200755Z 2009/2109 19006G12MPS 9999 BKN015 TXM00/2109Z TNM02/2009Z TEMPO 2018/2106 2000 SNRA BR OVC005

Feb-20@
09:00 UTC

Feb-20 @ 09:00 UTC

Feb-21@
09:00 UTC

Feb-21 @ 09:00 UTC

TAF UWKD 200755Z 2009/2109 19006G12MPS 9999 BKN015 TXM00/2109Z TNM02/2009Z
Wind
  • 190° at 12 KTS
  • {Gusting to 23 KTS
Visibility
10,000+ meters
Cloud Levels
  • Broken at 1,500' AGL

Feb-20@
18:00 UTC

Feb-20 @ 18:00 UTC

Feb-21@
06:00 UTC

Feb-21 @ 06:00 UTC

TEMPO 2018/2106 2000 SNRA BR OVC005

Temporary

TemporaryChanges expected for less than half the time period

Visibility
1,996 meters
Conditions
Snow, Rain, Mist
Cloud Levels
  • Overcast at 500' AGL